WetterOnline ( https://www.wetteronline.de )

Wetter aktuell Herford

Aktuelles Wetter: Bad Salzuflen (139m)

6-stündlich | Neueste Meldungen
Ortszeit Temperatur Wetter
Mi, 12.05. 8:00 11.9° C bedeckt
Mi, 12.05. 2:00 12.3° C Sprühregen
Di, 11.05. 20:00 13.3° C bedeckt
Di, 11.05. 14:00 13.7° C leichter Regen
Di, 11.05. 8:00 11.7° C leichter Regen
Di, 11.05. 2:00 13.6° C leichter Regen
Mo, 10.05. 20:00 18.3° C bedeckt
Mo, 10.05. 14:00 21.1° C wolkig
Ortszeit Temperatur Wetter
Mi, 12.05. 12:30 15.6° C bewölkt
Mi, 12.05. 12:20 15.6° C bewölkt
Mi, 12.05. 12:10 15.7° C bewölkt
Mi, 12.05. 12:00 15.2° C bedeckt
Mi, 12.05. 11:50 15.2° C bedeckt
Mi, 12.05. 11:40 15.5° C bewölkt
Mi, 12.05. 11:30 15.1° C wolkig
Mi, 12.05. 11:00 14.4° C wolkig
Ortszeit Relative Feuchte Sichtweite
Mi, 12.05. 8:00 90% 11 km
Mi, 12.05. 2:00 97% 1.0 km
Di, 11.05. 20:00 96% 3.1 km
Di, 11.05. 14:00 89% 22 km
Di, 11.05. 8:00 95% 11 km
Di, 11.05. 2:00 96% 1.3 km
Mo, 10.05. 20:00 62% 60 km
Mo, 10.05. 14:00 51% 50 km
Ortszeit Relative Feuchte Sichtweite
Mi, 12.05. 12:30 62% 50 km
Mi, 12.05. 12:20 62% -
Mi, 12.05. 12:10 64% -
Mi, 12.05. 12:00 63% 35 km
Mi, 12.05. 11:50 63% -
Mi, 12.05. 11:40 63% -
Mi, 12.05. 11:30 66% 30 km
Mi, 12.05. 11:00 70% 28 km
Ortszeit Niederschlagsmenge Niederschlagsart
Mi, 12.05. 8:00 0.6 l/m2 in 12 Std. Regen
Mi, 12.05. 2:00 0.3 l/m2 in 6 Std. Regen
Di, 11.05. 20:00 1 l/m2 in 12 Std. Regen
Di, 11.05. 14:00 0.3 l/m2 in 6 Std. Regen
Di, 11.05. 8:00 8 l/m2 in 12 Std. Regen
Di, 11.05. 2:00 4 l/m2 in 6 Std. Regen
Mo, 10.05. 20:00 0.1 l/m2 in 12 Std. -
Mo, 10.05. 14:00 0.1 l/m2 in 6 Std. Regen
Ortszeit Niederschlagsmenge Niederschlagsart
Mi, 12.05. 12:30 0.0 l/m2 in 1 Std. -
Mi, 12.05. 12:20 keine Meldung -
Mi, 12.05. 12:10 keine Meldung -
Mi, 12.05. 12:00 0.0 l/m2 in 1 Std. -
Mi, 12.05. 11:50 keine Meldung -
Mi, 12.05. 11:40 keine Meldung -
Mi, 12.05. 11:30 0.0 l/m2 in 1 Std. -
Mi, 12.05. 11:00 0.0 l/m2 in 1 Std. -
Ortszeit Stärke Spitze Richtung
km/h Bft. km/h Grad Sektor
Mi, 12.05. 8:00 6 1 22 270° W
Mi, 12.05. 2:00 0 0 11 - -
Di, 11.05. 20:00 6 1 13 20° N
Di, 11.05. 14:00 7 2 25 10° N
Di, 11.05. 8:00 11 2 22 20° N
Di, 11.05. 2:00 4 1 11 80° O
Mo, 10.05. 20:00 7 2 40 320° NW
Mo, 10.05. 14:00 18 3 50 250° W
Ortszeit Stärke Spitze Richtung
km/h Bft. km/h Grad Sektor
Mi, 12.05. 12:30 11 2 22 310° NW
Mi, 12.05. 12:20 11 2 - 310° NW
Mi, 12.05. 12:10 11 2 - 310° NW
Mi, 12.05. 12:00 7 2 22 310° NW
Mi, 12.05. 11:50 7 2 - 310° NW
Mi, 12.05. 11:40 9 2 - 300° NW
Mi, 12.05. 11:30 11 2 20 300° NW
Mi, 12.05. 11:00 9 2 19 280° W
Ortszeit Untergrenze Bedeckung Gattung
total tief tief mittel hoch
Mi, 12.05. 8:00 270 m 8/8 8/8 - - -
Mi, 12.05. 2:00 30 m 7/8 7/8 - - -
Di, 11.05. 20:00 210 m 8/8 8/8 - - -
Di, 11.05. 14:00 420 m 8/8 8/8 - - -
Di, 11.05. 8:00 30 m 8/8 8/8 - - -
Di, 11.05. 2:00 <30 m 8/8 0/8 - - -
Mo, 10.05. 20:00 3000 m 8/8 8/8 - - -
Mo, 10.05. 14:00 1800 m 7/8 1/8 - - -
Ortszeit Bedeckungsgrad in Achtel und Wolkenuntergrenze
Mi, 12.05. 12:30 4(960m) 8(3300m) 8(5400m)
Mi, 12.05. 12:20 4(960m) 8(3300m) 8(5400m)
Mi, 12.05. 12:10 4(870m) 8(3300m) 8(3900m)
Mi, 12.05. 12:00 6(810m) 8(2700m) 8(3600m)
Mi, 12.05. 11:50 6(810m) 8(2700m) 8(3600m)
Mi, 12.05. 11:40 4(810m) 8(3300m) 8(3900m)
Mi, 12.05. 11:30 2(750m) 8(3300m) 8(5100m)
Mi, 12.05. 11:00 1(570m) 8(3000m) 8(5100m)
Ortszeit Luftdruck NN (hPa) Tendenz (hPa in 3 Std.)
Mi, 12.05. 8:00 1010 + 1,2
Mi, 12.05. 2:00 1008 - 0,4
Di, 11.05. 20:00 1008 - 0,1
Di, 11.05. 14:00 1008 - 0,5
Di, 11.05. 8:00 1009 - 0,3
Di, 11.05. 2:00 1010 0,0
Mo, 10.05. 20:00 1009 + 1,1
Mo, 10.05. 14:00 1006 + 2,0
Ortszeit Luftdruck NN (hPa) Tendenz (hPa in 3 Std.)
Mi, 12.05. 12:30 1011 + 0,3
Mi, 12.05. 12:20 1011 keine Meldung
Mi, 12.05. 12:10 1011 keine Meldung
Mi, 12.05. 12:00 1011 + 0,6
Mi, 12.05. 11:50 1011 keine Meldung
Mi, 12.05. 11:40 1011 keine Meldung
Mi, 12.05. 11:30 1011 + 0,8
Mi, 12.05. 11:00 1011 + 0,9
Ortszeit Schneehöhe (cm)
Mi, 12.05. 8:00 0
Mi, 12.05. 2:00 0
Di, 11.05. 20:00 0
Di, 11.05. 14:00 0
Di, 11.05. 8:00 0
Di, 11.05. 2:00 0
Mo, 10.05. 20:00 0
Mo, 10.05. 14:00 0
Ortszeit Schneehöhe (cm)
Mi, 12.05. 12:30 0
Mi, 12.05. 12:20 0
Mi, 12.05. 12:10 0
Mi, 12.05. 12:00 0
Mi, 12.05. 11:50 0
Mi, 12.05. 11:40 0
Mi, 12.05. 11:30 0
Mi, 12.05. 11:00 0
Link zu dieser Seite / Seite empfehlen

Das Wetter in ...